VAR022 YWYY-YSRN

Flight info

Callsign VAR022
Flight time 1h 0m
Altitude 8500
Route NABAGEENA YBFR
Aircraft C172/L-SFG/C

Departure

Time 2026-05-05 19:19
Airport Wynyard Airport (YWYY)

Arrival

Time 2026-05-05 20:19
Airport Strahan Airport (YSRN)
Time Latitude Longitude Altitude Speed Heading
2026-05-05 18:58 -40.99400 145.72060 74 ft 0 kts 92°
2026-05-05 19:15 -40.99401 145.72062 77 ft 0 kts 93°
2026-05-05 19:15 -40.99415 145.72070 72 ft 8 kts 212°
2026-05-05 19:16 -40.99465 145.72110 74 ft 14 kts 101°
2026-05-05 19:16 -40.99479 145.72269 74 ft 21 kts 94°
2026-05-05 19:16 -40.99489 145.72488 67 ft 26 kts 95°
2026-05-05 19:16 -40.99503 145.72730 59 ft 27 kts 94°
2026-05-05 19:17 -40.99515 145.72919 50 ft 13 kts 127°
2026-05-05 19:17 -40.99525 145.72929 49 ft 0 kts 147°
2026-05-05 19:18 -40.99533 145.72934 49 ft 4 kts 157°
2026-05-05 19:18 -40.99572 145.72944 49 ft 4 kts 211°
2026-05-05 19:18 -40.99596 145.72890 52 ft 20 kts 251°
2026-05-05 19:18 -40.99726 145.72533 72 ft 64 kts 244°
2026-05-05 19:19 -40.99995 145.71931 185 ft 81 kts 238°
2026-05-05 19:19 -41.00372 145.71360 416 ft 84 kts 236°
2026-05-05 19:19 -41.00658 145.70627 622 ft 93 kts 253°
2026-05-05 19:19 -41.00757 145.69801 858 ft 89 kts 264°
2026-05-05 19:20 -41.00861 145.68999 1121 ft 89 kts 265°
2026-05-05 19:20 -41.00955 145.68216 1374 ft 82 kts 267°
2026-05-05 19:20 -41.01018 145.67468 1597 ft 85 kts 267°
2026-05-05 19:20 -41.01087 145.66696 1796 ft 81 kts 269°
2026-05-05 19:21 -41.01159 145.65982 2014 ft 77 kts 268°
2026-05-05 19:21 -41.01223 145.65292 2213 ft 75 kts 268°
2026-05-05 19:21 -41.01250 145.64605 2414 ft 72 kts 284°
2026-05-05 19:21 -41.01082 145.63973 2625 ft 75 kts 284°
2026-05-05 19:22 -41.01045 145.63273 2830 ft 77 kts 276°
2026-05-05 19:22 -41.01030 145.62577 2995 ft 75 kts 276°
2026-05-05 19:22 -41.01020 145.61846 3014 ft 85 kts 275°
2026-05-05 19:22 -41.01006 145.61038 3016 ft 92 kts 275°
2026-05-05 19:23 -41.00978 145.60188 3006 ft 91 kts 275°
2026-05-05 19:23 -41.00944 145.59368 3010 ft 91 kts 275°
2026-05-05 19:23 -41.00903 145.58534 3007 ft 90 kts 276°
2026-05-05 19:23 -41.00864 145.57709 3009 ft 90 kts 275°
2026-05-05 19:24 -41.00825 145.56892 3001 ft 87 kts 275°
2026-05-05 19:24 -41.00787 145.56100 2999 ft 86 kts 275°
2026-05-05 19:24 -41.00753 145.55316 2994 ft 86 kts 275°
2026-05-05 19:24 -41.00717 145.54524 3005 ft 88 kts 276°
2026-05-05 19:25 -41.00681 145.53722 3001 ft 87 kts 276°
2026-05-05 19:25 -41.00601 145.52937 3006 ft 86 kts 281°
2026-05-05 19:25 -41.00517 145.52142 2997 ft 87 kts 278°
2026-05-05 19:25 -41.00467 145.51345 3009 ft 88 kts 277°
2026-05-05 19:26 -41.00410 145.50515 3012 ft 92 kts 277°
2026-05-05 19:26 -41.00358 145.49673 3004 ft 91 kts 278°
2026-05-05 19:26 -41.00333 145.48854 3001 ft 88 kts 277°
2026-05-05 19:26 -41.00320 145.48067 3012 ft 85 kts 276°
2026-05-05 19:27 -41.00283 145.47262 3013 ft 88 kts 277°
2026-05-05 19:27 -41.00235 145.46435 3006 ft 90 kts 278°
2026-05-05 19:27 -41.00190 145.45626 3011 ft 89 kts 277°
2026-05-05 19:27 -41.00137 145.44816 3005 ft 88 kts 277°
2026-05-05 19:28 -41.00080 145.44009 3002 ft 88 kts 277°
2026-05-05 19:28 -41.00027 145.43204 2999 ft 88 kts 277°
2026-05-05 19:28 -40.99977 145.42400 3001 ft 87 kts 277°
2026-05-05 19:28 -40.99927 145.41596 3005 ft 88 kts 277°
2026-05-05 19:29 -40.99873 145.40791 3008 ft 88 kts 277°
2026-05-05 19:29 -40.99818 145.39987 3010 ft 88 kts 277°
2026-05-05 19:29 -40.99761 145.39175 3011 ft 89 kts 277°
2026-05-05 19:29 -40.99703 145.38364 3008 ft 88 kts 277°
2026-05-05 19:30 -40.99643 145.37538 3009 ft 90 kts 277°
2026-05-05 19:30 -40.99582 145.36730 3010 ft 89 kts 277°
2026-05-05 19:30 -40.99520 145.35912 3005 ft 89 kts 277°
2026-05-05 19:30 -40.99458 145.35097 3002 ft 89 kts 277°
2026-05-05 19:31 -40.99413 145.34279 3003 ft 89 kts 274°
2026-05-05 19:31 -40.99408 145.33455 3000 ft 89 kts 274°
2026-05-05 19:31 -40.99404 145.32630 3004 ft 90 kts 274°
2026-05-05 19:31 -40.99404 145.31801 3004 ft 89 kts 273°
2026-05-05 19:32 -40.99386 145.30978 2995 ft 89 kts 275°
2026-05-05 19:32 -40.99353 145.30187 2997 ft 84 kts 275°
2026-05-05 19:32 -40.99320 145.29427 2995 ft 82 kts 275°
2026-05-05 19:32 -40.99291 145.28670 2999 ft 82 kts 275°
2026-05-05 19:33 -40.99266 145.27911 2990 ft 82 kts 275°
2026-05-05 19:33 -40.99249 145.27163 3004 ft 82 kts 275°
2026-05-05 19:33 -40.99227 145.26411 3007 ft 83 kts 277°
2026-05-05 19:33 -40.99180 145.25646 3009 ft 83 kts 277°
2026-05-05 19:34 -40.99137 145.24890 3010 ft 83 kts 277°
2026-05-05 19:34 -40.99094 145.24129 2996 ft 81 kts 276°
2026-05-05 19:34 -40.99083 145.23394 3007 ft 82 kts 275°
2026-05-05 19:35 -40.99030 145.21824 3008 ft 87 kts 276°
2026-05-05 19:35 -40.99009 145.21020 3006 ft 86 kts 275°
2026-05-05 19:35 -40.98992 145.20232 3004 ft 85 kts 275°
2026-05-05 19:35 -40.98975 145.19474 3004 ft 83 kts 275°
2026-05-05 19:36 -40.98954 145.18710 3001 ft 84 kts 275°
2026-05-05 19:36 -40.98922 145.17933 2993 ft 83 kts 275°
2026-05-05 19:36 -40.98891 145.17171 2994 ft 84 kts 275°
2026-05-05 19:36 -40.98870 145.16387 3002 ft 87 kts 268°
2026-05-05 19:37 -40.99322 145.15780 2994 ft 110 kts 208°
2026-05-05 19:37 -41.00076 145.15618 2998 ft 109 kts 207°
2026-05-05 19:37 -41.00710 145.15209 3008 ft 101 kts 228°
2026-05-05 19:37 -41.01318 145.14701 3006 ft 104 kts 226°
2026-05-05 19:38 -41.01898 145.14176 3004 ft 101 kts 229°
2026-05-05 19:38 -41.02458 145.13641 3000 ft 98 kts 230°
2026-05-05 19:38 -41.03017 145.13142 3005 ft 97 kts 229°
2026-05-05 19:38 -41.03583 145.12633 3002 ft 99 kts 230°
2026-05-05 19:39 -41.04164 145.12110 3008 ft 103 kts 229°
2026-05-05 19:39 -41.04761 145.11568 3002 ft 104 kts 230°
2026-05-05 19:39 -41.05351 145.11039 3001 ft 102 kts 230°
2026-05-05 19:39 -41.05808 145.10424 2999 ft 91 kts 245°
2026-05-05 19:40 -41.06203 145.09774 2995 ft 90 kts 244°
2026-05-05 19:40 -41.06605 145.09111 2998 ft 94 kts 244°
2026-05-05 19:40 -41.07015 145.08416 3004 ft 97 kts 244°
2026-05-05 19:40 -41.07427 145.07705 2996 ft 97 kts 244°
2026-05-05 19:41 -41.07836 145.07010 3006 ft 96 kts 244°
2026-05-05 19:41 -41.08246 145.06292 3001 ft 100 kts 244°
2026-05-05 19:41 -41.08689 145.05579 2998 ft 100 kts 240°
2026-05-05 19:41 -41.09164 145.04916 2993 ft 103 kts 232°
2026-05-05 19:42 -41.09851 145.04511 2986 ft 109 kts 216°
2026-05-05 19:42 -41.10537 145.04188 2987 ft 101 kts 216°
2026-05-05 19:42 -41.11192 145.03863 2990 ft 102 kts 219°
2026-05-05 19:42 -41.11856 145.03495 2992 ft 105 kts 219°
2026-05-05 19:43 -41.12536 145.03094 2996 ft 108 kts 219°
2026-05-05 19:43 -41.13207 145.02701 2990 ft 102 kts 221°
2026-05-05 19:43 -41.13843 145.02346 2983 ft 97 kts 221°
2026-05-05 19:43 -41.14487 145.01997 2865 ft 103 kts 221°
2026-05-05 19:44 -41.15146 145.01599 2746 ft 106 kts 222°
2026-05-05 19:44 -41.15799 145.01146 2625 ft 108 kts 222°
2026-05-05 19:44 -41.16469 145.00671 2453 ft 110 kts 222°
2026-05-05 19:44 -41.17135 145.00182 2282 ft 108 kts 223°
2026-05-05 19:45 -41.17760 144.99676 2097 ft 102 kts 226°
2026-05-05 19:45 -41.18354 144.99179 1906 ft 101 kts 225°
2026-05-05 19:45 -41.18936 144.98691 1734 ft 99 kts 227°
2026-05-05 19:45 -41.19517 144.98189 1525 ft 100 kts 225°
2026-05-05 19:46 -41.20056 144.97700 1477 ft 88 kts 221°
2026-05-05 19:46 -41.20632 144.97419 1473 ft 87 kts 215°
2026-05-05 19:46 -41.21195 144.97177 1478 ft 83 kts 214°
2026-05-05 19:46 -41.21734 144.96927 1478 ft 81 kts 214°
2026-05-05 19:47 -41.22297 144.96561 1357 ft 95 kts 226°
2026-05-05 19:47 -41.22764 144.95987 1350 ft 94 kts 236°
2026-05-05 19:47 -41.23211 144.95327 1271 ft 99 kts 237°
2026-05-05 19:47 -41.23649 144.94656 1248 ft 91 kts 247°
2026-05-05 19:48 -41.23964 144.93959 1192 ft 87 kts 250°
2026-05-05 19:48 -41.24230 144.93239 1090 ft 87 kts 252°
2026-05-05 19:48 -41.24502 144.92524 1008 ft 88 kts 253°
2026-05-05 19:48 -41.24840 144.91831 995 ft 88 kts 245°
2026-05-05 19:49 -41.25057 144.91371 922 ft 91 kts 250°
2026-05-05 19:49 -41.25345 144.90672 1046 ft 72 kts 255°
2026-05-05 19:49 -41.25479 144.89959 985 ft 84 kts 269°
2026-05-05 19:49 -41.25631 144.89182 942 ft 90 kts 249°
2026-05-05 19:50 -41.25966 144.88480 867 ft 88 kts 242°
2026-05-05 19:50 -41.26351 144.87882 1017 ft 85 kts 232°
2026-05-05 19:50 -41.26936 144.87558 1152 ft 101 kts 192°
2026-05-05 19:50 -41.27649 144.87846 1278 ft 118 kts 150°
2026-05-05 19:51 -41.28181 144.88708 1403 ft 127 kts 113°
2026-05-05 19:51 -41.28615 144.89722 1478 ft 128 kts 135°
2026-05-05 19:51 -41.29291 144.90507 1503 ft 130 kts 154°
2026-05-05 19:51 -41.30070 144.91127 1490 ft 132 kts 158°
2026-05-05 19:52 -41.30887 144.91711 1491 ft 135 kts 158°
2026-05-05 19:52 -41.31722 144.92305 1495 ft 137 kts 159°
2026-05-05 19:52 -41.32562 144.92900 1543 ft 135 kts 158°
2026-05-05 19:52 -41.33383 144.93437 1607 ft 132 kts 158°
2026-05-05 19:53 -41.34206 144.94022 1657 ft 134 kts 158°
2026-05-05 19:53 -41.35014 144.94600 1702 ft 130 kts 159°
2026-05-05 19:53 -41.35798 144.95186 1748 ft 128 kts 158°
2026-05-05 19:53 -41.36561 144.95736 1780 ft 122 kts 162°
2026-05-05 19:54 -41.37299 144.96240 1824 ft 117 kts 162°
2026-05-05 19:54 -41.38040 144.96731 1873 ft 122 kts 162°
2026-05-05 19:54 -41.38809 144.97242 1931 ft 124 kts 163°
2026-05-05 19:54 -41.39583 144.97773 1986 ft 124 kts 162°
2026-05-05 19:55 -41.40348 144.98307 2051 ft 124 kts 162°
2026-05-05 19:55 -41.41117 144.98871 2106 ft 128 kts 162°
2026-05-05 19:55 -41.41898 144.99434 2140 ft 123 kts 170°
2026-05-05 19:55 -41.42672 144.99505 2183 ft 110 kts 191°
2026-05-05 19:56 -41.43415 144.99513 2223 ft 106 kts 191°
2026-05-05 19:56 -41.44171 144.99462 2286 ft 110 kts 200°
2026-05-05 19:56 -41.44932 144.99242 2406 ft 112 kts 217°
2026-05-05 19:56 -41.45735 144.98918 2485 ft 137 kts 197°
2026-05-05 19:57 -41.46697 144.98919 2470 ft 142 kts 179°
2026-05-05 19:57 -41.47626 144.99331 2472 ft 141 kts 169°
2026-05-05 19:57 -41.48541 144.99766 2484 ft 139 kts 169°
2026-05-05 19:57 -41.49428 145.00199 2464 ft 133 kts 169°
2026-05-05 19:58 -41.50294 145.00656 2467 ft 136 kts 169°
2026-05-05 19:58 -41.51207 145.01099 2476 ft 143 kts 171°
2026-05-05 19:58 -41.52173 145.01487 2471 ft 145 kts 173°
2026-05-05 19:58 -41.53102 145.01903 2465 ft 140 kts 171°
2026-05-05 19:59 -41.54018 145.02326 2463 ft 139 kts 171°
2026-05-05 19:59 -41.54934 145.02730 2463 ft 138 kts 172°
2026-05-05 19:59 -41.55832 145.03125 2467 ft 133 kts 171°
2026-05-05 19:59 -41.56707 145.03524 2466 ft 134 kts 172°
2026-05-05 20:00 -41.57588 145.03944 2465 ft 135 kts 172°
2026-05-05 20:00 -41.58471 145.04362 2462 ft 132 kts 172°
2026-05-05 20:00 -41.59268 145.04977 2465 ft 136 kts 153°
2026-05-05 20:00 -41.60056 145.05711 2467 ft 139 kts 156°
2026-05-05 20:01 -41.60895 145.06412 2483 ft 146 kts 157°
2026-05-05 20:01 -41.61763 145.07112 2461 ft 140 kts 158°
2026-05-05 20:01 -41.62568 145.07767 2471 ft 133 kts 158°
2026-05-05 20:01 -41.63356 145.08418 2473 ft 139 kts 158°
2026-05-05 20:02 -41.64183 145.09091 2473 ft 140 kts 158°
2026-05-05 20:02 -41.65014 145.09791 2480 ft 140 kts 157°
2026-05-05 20:02 -41.65855 145.10476 2472 ft 141 kts 158°
2026-05-05 20:02 -41.66695 145.11147 2461 ft 137 kts 158°
2026-05-05 20:03 -41.67496 145.11804 2454 ft 138 kts 159°
2026-05-05 20:03 -41.68321 145.12424 2458 ft 135 kts 167°
2026-05-05 20:03 -41.69156 145.12957 2465 ft 133 kts 167°
2026-05-05 20:03 -41.70013 145.13450 2445 ft 136 kts 167°
2026-05-05 20:04 -41.70850 145.13927 2469 ft 131 kts 168°
2026-05-05 20:04 -41.71720 145.14405 2463 ft 138 kts 168°
2026-05-05 20:04 -41.72619 145.14886 2476 ft 140 kts 169°
2026-05-05 20:04 -41.73552 145.15263 2465 ft 140 kts 176°
2026-05-05 20:05 -41.74435 145.15629 2477 ft 134 kts 172°
2026-05-05 20:05 -41.75340 145.16081 2464 ft 139 kts 172°
2026-05-05 20:05 -41.76272 145.16431 2463 ft 139 kts 175°
2026-05-05 20:05 -41.77196 145.16767 2471 ft 137 kts 175°
2026-05-05 20:06 -41.78121 145.17100 2459 ft 136 kts 180°
2026-05-05 20:06 -41.79045 145.17228 2457 ft 133 kts 188°
2026-05-05 20:06 -41.79958 145.17318 2456 ft 130 kts 189°
2026-05-05 20:06 -41.80874 145.17410 2462 ft 135 kts 189°
2026-05-05 20:07 -41.81799 145.17500 2462 ft 134 kts 189°
2026-05-05 20:07 -41.82668 145.17379 2450 ft 121 kts 204°
2026-05-05 20:07 -41.83502 145.17210 2461 ft 122 kts 204°
2026-05-05 20:07 -41.84255 145.16850 2459 ft 109 kts 232°
2026-05-05 20:08 -41.84909 145.16255 2463 ft 127 kts 218°
2026-05-05 20:08 -41.85816 145.16010 2450 ft 135 kts 201°
2026-05-05 20:08 -41.86777 145.16030 2439 ft 136 kts 186°
2026-05-05 20:08 -41.87693 145.16176 2463 ft 133 kts 186°
2026-05-05 20:09 -41.88601 145.16343 2422 ft 132 kts 186°
2026-05-05 20:09 -41.89508 145.16771 2311 ft 144 kts 162°
2026-05-05 20:09 -41.90407 145.17370 2197 ft 144 kts 163°
2026-05-05 20:09 -41.91326 145.17963 2068 ft 149 kts 160°
2026-05-05 20:10 -41.92239 145.18659 1937 ft 151 kts 155°
2026-05-05 20:10 -41.93138 145.19388 1816 ft 151 kts 155°
2026-05-05 20:10 -41.94043 145.20050 1691 ft 144 kts 160°
2026-05-05 20:10 -41.94940 145.20670 1556 ft 146 kts 159°
2026-05-05 20:11 -41.95826 145.21299 1449 ft 144 kts 159°
2026-05-05 20:11 -41.96687 145.21914 1442 ft 138 kts 158°
2026-05-05 20:11 -41.97547 145.22452 1443 ft 136 kts 164°
2026-05-05 20:11 -41.98422 145.22958 1442 ft 138 kts 164°
2026-05-05 20:12 -41.99309 145.23468 1438 ft 139 kts 163°
2026-05-05 20:12 -42.00198 145.23967 1423 ft 138 kts 163°
2026-05-05 20:12 -42.01097 145.24473 1327 ft 140 kts 163°
2026-05-05 20:12 -42.01991 145.24979 1221 ft 138 kts 163°
2026-05-05 20:13 -42.02864 145.25465 1117 ft 136 kts 164°
2026-05-05 20:13 -42.03755 145.25845 1015 ft 133 kts 171°
2026-05-05 20:13 -42.04667 145.26150 916 ft 135 kts 173°
2026-05-05 20:13 -42.05564 145.26450 914 ft 130 kts 172°
2026-05-05 20:14 -42.06441 145.26700 909 ft 128 kts 175°
2026-05-05 20:14 -42.07315 145.26945 902 ft 127 kts 174°
2026-05-05 20:14 -42.08157 145.27110 900 ft 123 kts 181°
2026-05-05 20:14 -42.09013 145.27271 900 ft 124 kts 180°
2026-05-05 20:15 -42.09875 145.27412 905 ft 126 kts 180°
2026-05-05 20:15 -42.10744 145.27568 907 ft 124 kts 182°
2026-05-05 20:15 -42.11612 145.27806 843 ft 130 kts 174°
2026-05-05 20:15 -42.12513 145.28063 771 ft 131 kts 176°
2026-05-05 20:16 -42.13400 145.28312 711 ft 129 kts 175°
2026-05-05 20:16 -42.14274 145.28375 698 ft 123 kts 198°
2026-05-05 20:16 -42.15077 145.28282 689 ft 114 kts 193°
2026-05-05 20:16 -42.15880 145.28191 638 ft 114 kts 198°
2026-05-05 20:17 -42.16652 145.28027 546 ft 111 kts 202°
2026-05-05 20:17 -42.17367 145.27728 451 ft 105 kts 216°
2026-05-05 20:17 -42.18024 145.27372 443 ft 98 kts 204°
2026-05-05 20:17 -42.18692 145.27281 418 ft 101 kts 166°
2026-05-05 20:18 -42.18832 145.27964 395 ft 77 kts 24°
2026-05-05 20:18 -42.18379 145.28274 299 ft 75 kts
2026-05-05 20:18 -42.17860 145.28421 244 ft 77 kts 359°
2026-05-05 20:18 -42.17336 145.28560 214 ft 75 kts 359°
2026-05-05 20:19 -42.16824 145.28690 216 ft 76 kts 359°
2026-05-05 20:19 -42.16295 145.28810 140 ft 77 kts 360°
2026-05-05 20:19 -42.15804 145.28941 97 ft 67 kts
2026-05-05 20:19 -42.15425 145.29000 93 ft 37 kts 16°
2026-05-05 20:20 -42.15236 145.29084 96 ft 11 kts 32°
2026-05-05 20:20 -42.15220 145.29148 95 ft 7 kts 104°
2026-05-05 20:20 -42.15224 145.29193 94 ft 2 kts 66°
2026-05-05 20:20 -42.15226 145.29228 92 ft 6 kts 113°
2026-05-05 20:21 -42.15250 145.29244 91 ft 0 kts 187°